createdAt,value
2022-09-24T00:02:01.019Z,10.90
2022-09-24T00:04:32.753Z,10.90
2022-09-24T00:07:04.650Z,10.90
2022-09-24T00:09:36.491Z,10.90
2022-09-24T00:12:08.271Z,10.90
2022-09-24T00:14:40.101Z,10.90
2022-09-24T00:17:11.890Z,10.90
2022-09-24T00:19:44.371Z,10.90
2022-09-24T00:22:16.050Z,11.00
2022-09-24T00:25:06.219Z,10.90
2022-09-24T00:27:37.912Z,10.80
2022-09-24T00:30:10.007Z,10.80
2022-09-24T00:32:41.701Z,10.70
2022-09-24T00:35:13.403Z,10.60
2022-09-24T00:37:45.084Z,10.60
2022-09-24T00:40:16.966Z,10.50
2022-09-24T00:42:48.715Z,10.50
2022-09-24T00:45:20.446Z,10.50
2022-09-24T00:47:53.627Z,10.50
2022-09-24T00:50:34.656Z,10.50
2022-09-24T00:53:15.054Z,10.50
2022-09-24T00:55:51.183Z,10.50
2022-09-24T00:58:23.783Z,10.40
2022-09-24T01:01:01.729Z,10.40
2022-09-24T01:03:41.038Z,10.30
2022-09-24T01:06:13.176Z,10.30
2022-09-24T01:08:45.970Z,10.30
2022-09-24T01:11:36.392Z,10.30
2022-09-24T01:14:26.894Z,10.30
2022-09-24T01:17:07.586Z,10.30
2022-09-24T01:20:08.643Z,10.30
2022-09-24T01:22:43.419Z,10.20
2022-09-24T01:25:54.568Z,10.20
2022-09-24T01:28:38.496Z,10.10
2022-09-24T01:31:28.243Z,10.10
2022-09-24T01:34:05.649Z,10.10
2022-09-24T01:36:40.411Z,10.00
2022-09-24T01:39:14.498Z,10.00
2022-09-24T01:41:47.462Z,10.00
2022-09-24T01:44:19.647Z,10.00
2022-09-24T01:46:51.883Z,10.00
2022-09-24T01:49:23.618Z,9.90
2022-09-24T01:51:58.671Z,9.90
2022-09-24T01:54:39.044Z,9.90
2022-09-24T01:57:18.329Z,9.90
2022-09-24T02:00:01.335Z,9.80
2022-09-24T02:02:35.752Z,9.90
2022-09-24T02:05:14.768Z,9.90
2022-09-24T02:08:11.893Z,10.00
2022-09-24T02:11:08.439Z,10.00
2022-09-24T02:13:56.489Z,9.90
2022-09-24T02:16:33.347Z,10.00
2022-09-24T02:19:09.364Z,10.00
2022-09-24T02:21:43.243Z,9.90
2022-09-24T02:24:19.306Z,9.90
2022-09-24T02:26:51.410Z,10.00
2022-09-24T02:29:23.186Z,10.10
2022-09-24T02:31:57.650Z,10.00
2022-09-24T02:34:49.939Z,10.00
2022-09-24T02:37:23.888Z,10.00
2022-09-24T02:39:56.006Z,9.90
2022-09-24T02:42:27.803Z,10.00
2022-09-24T02:45:00.538Z,10.00
2022-09-24T02:47:32.764Z,10.00
2022-09-24T02:50:05.011Z,10.00
2022-09-24T02:52:36.708Z,10.00
2022-09-24T02:55:08.487Z,10.10
2022-09-24T02:57:40.235Z,10.10
2022-09-24T03:00:12.692Z,10.10
2022-09-24T03:02:44.460Z,10.10
2022-09-24T03:05:19.019Z,10.20
2022-09-24T03:07:51.744Z,10.20
2022-09-24T03:10:24.496Z,10.20
2022-09-24T03:12:56.760Z,10.30
2022-09-24T03:15:29.792Z,10.30
2022-09-24T03:18:01.590Z,10.30
2022-09-24T03:20:33.458Z,10.30
2022-09-24T03:23:05.405Z,10.30
2022-09-24T03:25:37.088Z,10.30
2022-09-24T03:28:08.763Z,10.30
2022-09-24T03:30:58.910Z,10.30
2022-09-24T03:33:34.544Z,10.40
2022-09-24T03:36:20.687Z,10.40
2022-09-24T03:38:56.138Z,10.40
2022-09-24T03:41:28.367Z,10.50
2022-09-24T03:44:00.355Z,10.50
2022-09-24T03:46:32.126Z,10.60
2022-09-24T03:49:03.829Z,10.60
2022-09-24T03:51:35.590Z,10.70
2022-09-24T03:54:07.379Z,10.70
2022-09-24T03:56:39.122Z,10.70
2022-09-24T03:59:11.247Z,10.60
2022-09-24T04:01:42.972Z,10.60
2022-09-24T04:04:16.282Z,10.60
2022-09-24T04:06:47.964Z,10.70
2022-09-24T04:09:19.715Z,10.60
2022-09-24T04:11:52.755Z,10.70
2022-09-24T04:14:24.486Z,10.60
2022-09-24T04:16:56.203Z,10.60
2022-09-24T04:19:27.851Z,10.70
2022-09-24T04:21:59.825Z,10.60
2022-09-24T04:24:31.592Z,10.70
2022-09-24T04:27:03.603Z,10.60
2022-09-24T04:29:35.260Z,10.60
2022-09-24T04:32:07.084Z,10.60
2022-09-24T04:34:38.833Z,10.60
2022-09-24T04:37:10.635Z,10.60
2022-09-24T04:39:42.411Z,10.60
2022-09-24T04:42:18.388Z,10.50
2022-09-24T04:44:52.842Z,10.50
2022-09-24T04:47:27.759Z,10.50
2022-09-24T04:50:00.406Z,10.60
2022-09-24T04:52:33.276Z,10.50
2022-09-24T04:55:05.883Z,10.50
2022-09-24T04:57:37.632Z,10.50
2022-09-24T05:00:14.685Z,10.60
2022-09-24T05:02:47.137Z,10.60
2022-09-24T05:05:18.940Z,10.60
2022-09-24T05:07:51.262Z,10.60
2022-09-24T05:10:24.071Z,10.60
2022-09-24T05:12:55.946Z,10.70
2022-09-24T05:15:27.962Z,10.70
2022-09-24T05:17:59.774Z,10.70
2022-09-24T05:20:32.052Z,10.80
2022-09-24T05:23:03.777Z,10.80
2022-09-24T05:25:55.514Z,10.80
2022-09-24T05:28:27.172Z,10.80
2022-09-24T05:31:02.476Z,10.90
2022-09-24T05:33:34.229Z,10.90
2022-09-24T05:36:06.327Z,10.90
2022-09-24T05:38:41.464Z,10.90
2022-09-24T05:41:13.455Z,11.00
2022-09-24T05:43:45.225Z,11.00
2022-09-24T05:46:17.483Z,11.00
2022-09-24T05:48:49.674Z,11.00
2022-09-24T05:51:21.635Z,11.00
2022-09-24T05:53:53.289Z,11.10
2022-09-24T05:56:25.029Z,11.20
2022-09-24T05:58:56.690Z,11.30
2022-09-24T06:01:31.762Z,11.40
2022-09-24T06:04:08.438Z,11.50
2022-09-24T06:06:40.628Z,11.60
2022-09-24T06:09:12.604Z,11.70
2022-09-24T06:11:44.371Z,11.70
2022-09-24T06:14:16.059Z,11.70
2022-09-24T06:16:47.707Z,11.80
2022-09-24T06:19:19.567Z,11.80
2022-09-24T06:21:51.340Z,12.00
2022-09-24T06:24:23.628Z,12.10
2022-09-24T06:26:55.379Z,12.20
2022-09-24T06:29:27.029Z,12.40
2022-09-24T06:31:59.860Z,12.50
2022-09-24T06:34:31.998Z,12.60
2022-09-24T06:37:03.748Z,12.60
2022-09-24T06:39:35.536Z,12.70
2022-09-24T06:42:07.242Z,12.70
2022-09-24T06:44:39.115Z,12.60
2022-09-24T06:47:12.582Z,12.70
2022-09-24T06:49:44.293Z,12.70
2022-09-24T06:52:16.686Z,12.70
2022-09-24T06:54:48.350Z,12.80
2022-09-24T06:57:19.998Z,12.90
2022-09-24T06:59:52.043Z,12.90
2022-09-24T07:02:23.790Z,12.90
2022-09-24T07:04:55.563Z,13.00
2022-09-24T07:07:30.025Z,13.00
2022-09-24T07:10:05.703Z,13.10
2022-09-24T07:12:37.543Z,13.10
2022-09-24T07:15:10.331Z,13.20
2022-09-24T07:17:42.137Z,13.20
2022-09-24T07:20:14.133Z,13.20
2022-09-24T07:22:45.845Z,13.20
2022-09-24T07:25:17.713Z,13.20
2022-09-24T07:27:49.389Z,13.20
2022-09-24T07:30:21.460Z,13.30
2022-09-24T07:32:57.068Z,13.40
2022-09-24T07:35:29.331Z,13.40
2022-09-24T07:38:03.734Z,13.50
2022-09-24T07:40:35.557Z,13.50
2022-09-24T07:43:12.278Z,13.50
2022-09-24T07:45:44.044Z,13.60
2022-09-24T07:48:16.469Z,13.70
2022-09-24T07:50:48.145Z,13.70
2022-09-24T07:53:21.857Z,13.70
2022-09-24T07:55:53.655Z,13.70
2022-09-24T07:58:25.348Z,13.70
2022-09-24T08:01:03.273Z,13.80
2022-09-24T08:03:35.106Z,13.80
2022-09-24T08:06:07.063Z,13.80
2022-09-24T08:08:39.733Z,13.80
2022-09-24T08:11:17.331Z,13.80
2022-09-24T08:13:50.619Z,13.80
2022-09-24T08:16:22.597Z,13.80
2022-09-24T08:18:55.029Z,13.90
2022-09-24T08:21:27.956Z,13.90
2022-09-24T08:23:59.641Z,13.90
2022-09-24T08:26:31.306Z,13.90
2022-09-24T08:29:03.003Z,13.90
2022-09-24T08:31:34.879Z,13.80
2022-09-24T08:34:06.617Z,13.80
2022-09-24T08:36:42.768Z,13.80
2022-09-24T08:39:15.595Z,13.80
2022-09-24T08:42:01.126Z,13.80
2022-09-24T08:44:59.421Z,13.80
2022-09-24T08:47:37.408Z,13.90
2022-09-24T08:50:17.311Z,14.00
2022-09-24T08:52:59.477Z,14.10
2022-09-24T08:55:41.061Z,14.20
2022-09-24T08:58:43.492Z,14.20
2022-09-24T09:01:44.548Z,14.20
2022-09-24T09:04:33.650Z,14.20
2022-09-24T09:07:13.401Z,14.40
2022-09-24T09:09:48.480Z,14.50
2022-09-24T09:12:27.148Z,14.60
2022-09-24T09:15:11.741Z,14.60
2022-09-24T09:17:49.327Z,14.70
2022-09-24T09:20:44.377Z,14.60
2022-09-24T09:23:20.228Z,14.50
2022-09-24T09:26:00.388Z,14.50
2022-09-24T09:28:34.118Z,14.60
2022-09-24T09:31:55.439Z,14.50
2022-09-24T09:34:49.990Z,14.60
2022-09-24T09:37:43.007Z,14.60
2022-09-24T09:40:31.695Z,14.70
2022-09-24T09:43:10.882Z,14.70
2022-09-24T09:45:52.083Z,14.80
2022-09-24T09:48:28.520Z,14.80
2022-09-24T09:51:05.028Z,14.80
2022-09-24T09:53:37.931Z,14.70
2022-09-24T09:56:10.356Z,14.80
2022-09-24T09:58:53.219Z,15.00
2022-09-24T10:01:32.174Z,15.00
2022-09-24T10:04:05.122Z,15.10
2022-09-24T10:06:36.921Z,15.20
2022-09-24T10:09:17.132Z,15.30
2022-09-24T10:11:49.165Z,15.30
2022-09-24T10:14:21.618Z,15.20
2022-09-24T10:16:55.224Z,15.20
2022-09-24T10:19:28.633Z,15.00
2022-09-24T10:22:26.584Z,15.00
2022-09-24T10:25:00.406Z,14.80
2022-09-24T10:27:36.049Z,14.70
2022-09-24T10:30:34.794Z,14.70
2022-09-24T10:33:08.772Z,14.50
2022-09-24T10:35:40.431Z,14.30
2022-09-24T10:38:18.739Z,14.20
2022-09-24T10:40:50.672Z,14.10
2022-09-24T10:43:22.837Z,14.10
2022-09-24T10:46:09.919Z,14.10
2022-09-24T10:49:04.703Z,14.10
2022-09-24T10:52:00.835Z,14.20
2022-09-24T10:54:51.353Z,14.30
2022-09-24T10:57:43.430Z,14.40
2022-09-24T11:00:23.863Z,14.60
2022-09-24T11:03:12.046Z,14.60
2022-09-24T11:06:00.547Z,14.70
2022-09-24T11:09:01.135Z,14.80
2022-09-24T11:11:39.363Z,14.80
2022-09-24T11:14:23.781Z,14.90
2022-09-24T11:17:18.127Z,14.90
2022-09-24T11:20:15.688Z,15.00
2022-09-24T11:23:15.291Z,15.10
2022-09-24T11:25:53.819Z,15.10
2022-09-24T11:28:46.499Z,15.10
2022-09-24T11:31:33.965Z,15.20
2022-09-24T11:34:50.579Z,15.30
2022-09-24T11:37:50.488Z,15.50
2022-09-24T11:40:30.002Z,15.90
2022-09-24T11:43:25.223Z,16.10
2022-09-24T11:46:19.983Z,16.20
2022-09-24T11:49:07.180Z,16.20
2022-09-24T11:52:10.386Z,16.20
2022-09-24T11:55:16.081Z,16.10
2022-09-24T11:58:02.520Z,16.00
2022-09-24T12:00:40.587Z,15.90
2022-09-24T12:03:28.750Z,15.90
2022-09-24T12:06:13.653Z,16.00
2022-09-24T12:09:02.120Z,16.10
2022-09-24T12:11:41.321Z,16.00
2022-09-24T12:14:21.668Z,16.00
2022-09-24T12:16:59.038Z,16.00
2022-09-24T12:19:42.055Z,15.90
2022-09-24T12:22:16.761Z,15.80
2022-09-24T12:24:54.342Z,15.80
2022-09-24T12:27:33.732Z,15.80
2022-09-24T12:30:40.029Z,15.70
2022-09-24T12:33:31.358Z,15.60
2022-09-24T12:36:06.567Z,15.60
2022-09-24T12:38:44.659Z,15.50
2022-09-24T12:41:37.099Z,15.40
2022-09-24T12:44:21.924Z,15.30
2022-09-24T12:46:56.094Z,15.30
2022-09-24T12:49:36.067Z,15.30
2022-09-24T12:52:18.917Z,15.40
2022-09-24T12:54:59.771Z,15.40
2022-09-24T12:58:00.444Z,15.40
2022-09-24T13:00:32.074Z,15.50
2022-09-24T13:03:05.618Z,15.40
2022-09-24T13:05:40.767Z,15.40
2022-09-24T13:08:20.033Z,15.40
2022-09-24T13:10:56.337Z,15.40
2022-09-24T13:13:32.776Z,15.40
2022-09-24T13:16:06.318Z,15.40
2022-09-24T13:18:38.064Z,15.40
2022-09-24T13:21:20.171Z,15.40
2022-09-24T13:23:52.261Z,15.40
2022-09-24T13:26:33.879Z,15.40
2022-09-24T13:29:22.506Z,15.40
2022-09-24T13:32:02.811Z,15.50
2022-09-24T13:34:36.472Z,15.70
2022-09-24T13:37:35.107Z,15.70
2022-09-24T13:40:18.573Z,15.70
2022-09-24T13:42:58.492Z,15.70
2022-09-24T13:45:31.908Z,15.70
2022-09-24T13:48:23.408Z,15.90
2022-09-24T13:50:56.322Z,16.00
2022-09-24T13:53:35.296Z,16.20
2022-09-24T13:56:15.750Z,16.30
2022-09-24T13:58:51.105Z,16.40
2022-09-24T14:01:30.131Z,16.20
2022-09-24T14:04:15.346Z,16.10
2022-09-24T14:06:58.445Z,16.00
2022-09-24T14:09:33.559Z,16.00
2022-09-24T14:12:18.372Z,15.90
2022-09-24T14:14:58.187Z,15.80
2022-09-24T14:17:30.031Z,15.70
2022-09-24T14:20:01.941Z,15.60
2022-09-24T14:22:41.140Z,15.50
2022-09-24T14:25:17.914Z,15.50
2022-09-24T14:27:51.366Z,15.60
2022-09-24T14:30:25.315Z,15.60
2022-09-24T14:33:07.082Z,15.60
2022-09-24T14:35:40.013Z,15.70
2022-09-24T14:38:19.797Z,15.60
2022-09-24T14:40:57.757Z,15.70
2022-09-24T14:43:35.242Z,15.70
2022-09-24T14:46:21.059Z,15.80
2022-09-24T14:49:03.581Z,15.80
2022-09-24T14:51:35.879Z,15.70
2022-09-24T14:54:27.443Z,15.70
2022-09-24T14:57:17.463Z,15.60
2022-09-24T14:59:49.403Z,15.50
2022-09-24T15:02:37.198Z,15.50
2022-09-24T15:05:09.520Z,15.50
2022-09-24T15:07:41.286Z,15.50
2022-09-24T15:10:22.162Z,15.50
2022-09-24T15:12:53.887Z,15.50
2022-09-24T15:15:29.609Z,15.70
2022-09-24T15:18:01.267Z,15.80
2022-09-24T15:20:32.919Z,15.90
2022-09-24T15:23:04.688Z,15.90
2022-09-24T15:25:36.695Z,15.90
2022-09-24T15:28:13.898Z,15.80
2022-09-24T15:30:45.670Z,15.70
2022-09-24T15:33:18.296Z,15.60
2022-09-24T15:35:50.233Z,15.50
2022-09-24T15:38:22.075Z,15.60
2022-09-24T15:40:53.968Z,15.70
2022-09-24T15:43:25.860Z,15.60
2022-09-24T15:45:57.634Z,15.50
2022-09-24T15:48:29.346Z,15.50
2022-09-24T15:51:07.210Z,15.40
2022-09-24T15:53:41.999Z,15.30
2022-09-24T15:56:15.188Z,15.20
2022-09-24T15:58:46.851Z,15.20
2022-09-24T16:01:18.925Z,15.20
2022-09-24T16:03:50.705Z,15.20
2022-09-24T16:06:24.049Z,15.10
2022-09-24T16:08:55.710Z,15.00
2022-09-24T16:11:27.422Z,15.00
2022-09-24T16:13:59.075Z,15.00
2022-09-24T16:16:30.771Z,15.00
2022-09-24T16:19:02.672Z,15.00
2022-09-24T16:21:34.394Z,14.90
2022-09-24T16:24:06.223Z,14.90
2022-09-24T16:26:38.515Z,14.90
2022-09-24T16:29:12.001Z,14.80
2022-09-24T16:31:45.017Z,14.90
2022-09-24T16:34:16.756Z,14.90
2022-09-24T16:36:48.512Z,14.80
2022-09-24T16:39:20.324Z,14.80
2022-09-24T16:41:52.934Z,14.80
2022-09-24T16:44:24.682Z,14.80
2022-09-24T16:46:56.497Z,14.70
2022-09-24T16:49:28.275Z,14.70
2022-09-24T16:52:00.115Z,14.60
2022-09-24T16:54:32.739Z,14.60
2022-09-24T16:57:06.078Z,14.50
2022-09-24T16:59:37.886Z,14.50
2022-09-24T17:02:12.327Z,14.40
2022-09-24T17:04:44.039Z,14.40
2022-09-24T17:07:15.799Z,14.30
2022-09-24T17:10:06.205Z,14.20
2022-09-24T17:12:38.006Z,14.20
2022-09-24T17:15:12.122Z,14.20
2022-09-24T17:17:49.422Z,14.20
2022-09-24T17:20:21.839Z,14.20
2022-09-24T17:22:53.764Z,14.10
2022-09-24T17:25:26.757Z,14.00
2022-09-24T17:27:58.414Z,14.00
2022-09-24T17:30:30.067Z,13.90
2022-09-24T17:33:01.751Z,13.80
2022-09-24T17:35:33.493Z,13.70
2022-09-24T17:38:05.171Z,13.60
2022-09-24T17:40:36.869Z,13.60
2022-09-24T17:43:08.538Z,13.50
2022-09-24T17:45:40.227Z,13.50
2022-09-24T17:48:11.876Z,13.40
2022-09-24T17:50:43.543Z,13.40
2022-09-24T17:53:16.061Z,13.30
2022-09-24T17:55:52.071Z,13.30
2022-09-24T17:58:24.102Z,13.30
2022-09-24T18:01:02.937Z,13.30
2022-09-24T18:03:34.660Z,13.30
2022-09-24T18:06:09.332Z,13.30
2022-09-24T18:08:43.417Z,13.30
2022-09-24T18:11:17.352Z,13.30
2022-09-24T18:13:57.023Z,13.30
2022-09-24T18:16:31.134Z,13.30
2022-09-24T18:19:03.427Z,13.20
2022-09-24T18:21:35.189Z,13.20
2022-09-24T18:24:07.345Z,13.20
2022-09-24T18:26:40.075Z,13.20
2022-09-24T18:29:16.721Z,13.20
2022-09-24T18:31:49.267Z,13.20
2022-09-24T18:34:20.955Z,13.30
2022-09-24T18:36:52.683Z,13.30
2022-09-24T18:39:25.697Z,13.30
2022-09-24T18:41:57.739Z,13.30
2022-09-24T18:44:29.515Z,13.30
2022-09-24T18:47:01.255Z,13.30
2022-09-24T18:49:33.006Z,13.30
2022-09-24T18:52:04.666Z,13.20
2022-09-24T18:54:36.582Z,13.20
2022-09-24T18:57:08.319Z,13.10
2022-09-24T18:59:44.792Z,13.20
2022-09-24T19:02:16.597Z,13.10
2022-09-24T19:04:48.391Z,13.10
2022-09-24T19:07:20.197Z,13.10
2022-09-24T19:09:52.910Z,13.00
2022-09-24T19:12:26.011Z,13.10
2022-09-24T19:14:58.670Z,13.00
2022-09-24T19:17:30.335Z,13.00
2022-09-24T19:20:02.304Z,13.00
2022-09-24T19:22:34.106Z,13.00
2022-09-24T19:25:06.307Z,13.00
2022-09-24T19:27:40.263Z,13.00
2022-09-24T19:30:12.460Z,13.00
2022-09-24T19:32:45.513Z,13.00
2022-09-24T19:35:17.188Z,13.00
2022-09-24T19:37:49.001Z,13.00
2022-09-24T19:40:21.013Z,13.00
2022-09-24T19:42:54.507Z,13.00
2022-09-24T19:45:26.799Z,13.00
2022-09-24T19:47:59.284Z,13.00
2022-09-24T19:50:34.278Z,13.00
2022-09-24T19:53:05.948Z,13.00
2022-09-24T19:55:37.728Z,13.00
2022-09-24T19:58:09.493Z,13.00
2022-09-24T20:00:42.960Z,13.00
2022-09-24T20:03:17.302Z,13.00
2022-09-24T20:05:49.051Z,13.00
2022-09-24T20:08:20.703Z,13.10
2022-09-24T20:10:52.607Z,13.10
2022-09-24T20:13:24.266Z,13.10
2022-09-24T20:16:00.968Z,13.00
2022-09-24T20:18:34.562Z,13.00
2022-09-24T20:21:07.087Z,13.10
2022-09-24T20:23:41.838Z,13.10
2022-09-24T20:26:33.890Z,13.00
2022-09-24T20:29:09.821Z,13.00
2022-09-24T20:31:47.268Z,12.90
2022-09-24T20:34:25.013Z,12.90
2022-09-24T20:37:00.894Z,12.80
2022-09-24T20:39:33.245Z,12.80
2022-09-24T20:42:05.964Z,12.80
2022-09-24T20:44:38.166Z,12.70
2022-09-24T20:47:10.254Z,12.70
2022-09-24T20:49:42.010Z,12.70
2022-09-24T20:52:13.980Z,12.70
2022-09-24T20:54:47.217Z,12.70
2022-09-24T20:57:18.930Z,12.60
2022-09-24T20:59:51.387Z,12.60
2022-09-24T21:02:23.647Z,12.50
2022-09-24T21:04:56.435Z,12.50
2022-09-24T21:07:28.172Z,12.40
2022-09-24T21:10:00.406Z,12.40
2022-09-24T21:12:32.152Z,12.30
2022-09-24T21:15:08.111Z,12.20
2022-09-24T21:17:40.159Z,12.20
2022-09-24T21:20:11.990Z,12.20
2022-09-24T21:22:43.689Z,12.10
2022-09-24T21:25:30.369Z,12.00
2022-09-24T21:28:07.292Z,12.00
2022-09-24T21:30:38.979Z,11.90
2022-09-24T21:33:10.646Z,11.80
2022-09-24T21:35:42.342Z,11.80
2022-09-24T21:41:59.847Z,11.70
2022-09-24T21:48:17.826Z,11.70
2022-09-24T21:50:50.079Z,11.80
2022-09-24T21:53:21.784Z,11.80
2022-09-24T21:55:53.453Z,11.80
2022-09-24T22:02:11.197Z,11.80
2022-09-24T22:04:44.299Z,11.80
2022-09-24T22:11:10.074Z,11.70
2022-09-24T22:13:42.022Z,11.70
2022-09-24T22:20:07.132Z,11.70
2022-09-24T22:26:32.063Z,11.70
2022-09-24T22:29:03.913Z,11.60
2022-09-24T22:35:47.200Z,11.50
2022-09-24T22:38:18.846Z,11.50
2022-09-24T22:40:51.014Z,11.40
2022-09-24T22:43:22.758Z,11.40
2022-09-24T22:46:02.302Z,11.40
2022-09-24T22:52:26.598Z,11.30
2022-09-24T22:58:55.455Z,11.30
2022-09-24T23:05:14.319Z,11.20
2022-09-24T23:11:33.634Z,11.20
2022-09-24T23:14:11.199Z,11.20
2022-09-24T23:16:43.675Z,11.20
2022-09-24T23:23:01.398Z,11.20
2022-09-24T23:29:24.622Z,11.10
2022-09-24T23:31:57.431Z,11.20
2022-09-24T23:34:29.206Z,11.20
2022-09-24T23:37:00.935Z,11.30
2022-09-24T23:39:33.459Z,11.30
2022-09-24T23:42:06.412Z,11.30
2022-09-24T23:44:38.072Z,11.30
2022-09-24T23:47:09.759Z,11.30
2022-09-24T23:49:41.676Z,11.30
2022-09-24T23:56:07.307Z,11.30
2022-09-24T23:58:42.050Z,11.30
